sensor_id;sensor_type;location;lat;lon;timestamp;P1;durP1;ratioP1;P2;durP2;ratioP2
26303;SDS011;57113;48.680;8.890;2022-12-29T00:01:54;3.08;;;1.67;;
26303;SDS011;57113;48.680;8.890;2022-12-29T00:04:20;2.17;;;1.63;;
26303;SDS011;57113;48.680;8.890;2022-12-29T00:06:46;3.28;;;1.75;;
26303;SDS011;57113;48.680;8.890;2022-12-29T00:09:11;4.18;;;2.10;;
26303;SDS011;57113;48.680;8.890;2022-12-29T00:11:38;4.15;;;1.95;;
26303;SDS011;57113;48.680;8.890;2022-12-29T00:14:03;2.45;;;1.80;;
26303;SDS011;57113;48.680;8.890;2022-12-29T00:16:47;4.68;;;1.88;;
26303;SDS011;57113;48.680;8.890;2022-12-29T00:19:13;2.17;;;1.55;;
26303;SDS011;57113;48.680;8.890;2022-12-29T00:21:57;3.38;;;1.67;;
26303;SDS011;57113;48.680;8.890;2022-12-29T00:24:43;3.38;;;1.52;;
26303;SDS011;57113;48.680;8.890;2022-12-29T00:27:18;6.75;;;1.80;;
26303;SDS011;57113;48.680;8.890;2022-12-29T00:30:02;4.68;;;1.88;;
26303;SDS011;57113;48.680;8.890;2022-12-29T00:32:52;2.72;;;1.90;;
26303;SDS011;57113;48.680;8.890;2022-12-29T00:35:48;2.88;;;1.80;;
26303;SDS011;57113;48.680;8.890;2022-12-29T00:38:18;4.63;;;1.80;;
26303;SDS011;57113;48.680;8.890;2022-12-29T00:41:21;4.20;;;1.67;;
26303;SDS011;57113;48.680;8.890;2022-12-29T00:44:05;4.07;;;1.75;;
26303;SDS011;57113;48.680;8.890;2022-12-29T00:46:35;2.92;;;1.58;;
26303;SDS011;57113;48.680;8.890;2022-12-29T00:49:02;2.13;;;1.58;;
26303;SDS011;57113;48.680;8.890;2022-12-29T00:51:47;3.33;;;1.48;;
26303;SDS011;57113;48.680;8.890;2022-12-29T00:54:13;2.70;;;1.73;;
26303;SDS011;57113;48.680;8.890;2022-12-29T00:56:40;3.42;;;1.70;;
26303;SDS011;57113;48.680;8.890;2022-12-29T00:59:07;3.63;;;1.60;;
26303;SDS011;57113;48.680;8.890;2022-12-29T01:01:34;2.20;;;1.67;;
26303;SDS011;57113;48.680;8.890;2022-12-29T01:04:01;3.22;;;1.70;;
26303;SDS011;57113;48.680;8.890;2022-12-29T01:06:27;2.40;;;1.50;;
26303;SDS011;57113;48.680;8.890;2022-12-29T01:08:52;2.70;;;1.63;;
26303;SDS011;57113;48.680;8.890;2022-12-29T01:11:37;2.75;;;1.60;;
26303;SDS011;57113;48.680;8.890;2022-12-29T01:14:04;5.07;;;2.28;;
26303;SDS011;57113;48.680;8.890;2022-12-29T01:16:30;2.75;;;1.52;;
26303;SDS011;57113;48.680;8.890;2022-12-29T01:18:56;4.95;;;1.80;;
26303;SDS011;57113;48.680;8.890;2022-12-29T01:21:22;2.90;;;1.33;;
26303;SDS011;57113;48.680;8.890;2022-12-29T01:23:48;3.83;;;1.50;;
26303;SDS011;57113;48.680;8.890;2022-12-29T01:26:15;4.07;;;2.20;;
26303;SDS011;57113;48.680;8.890;2022-12-29T01:28:41;3.45;;;1.60;;
26303;SDS011;57113;48.680;8.890;2022-12-29T01:31:08;4.97;;;1.77;;
26303;SDS011;57113;48.680;8.890;2022-12-29T01:33:37;3.08;;;1.80;;
26303;SDS011;57113;48.680;8.890;2022-12-29T01:36:04;2.92;;;1.40;;
26303;SDS011;57113;48.680;8.890;2022-12-29T01:38:33;4.20;;;1.50;;
26303;SDS011;57113;48.680;8.890;2022-12-29T01:41:00;2.60;;;1.45;;
26303;SDS011;57113;48.680;8.890;2022-12-29T01:46:17;4.35;;;1.50;;
26303;SDS011;57113;48.680;8.890;2022-12-29T01:48:51;2.42;;;1.40;;
26303;SDS011;57113;48.680;8.890;2022-12-29T01:51:24;2.38;;;1.50;;
26303;SDS011;57113;48.680;8.890;2022-12-29T01:53:53;3.42;;;1.55;;
26303;SDS011;57113;48.680;8.890;2022-12-29T01:56:22;3.25;;;1.63;;
26303;SDS011;57113;48.680;8.890;2022-12-29T01:58:49;1.50;;;1.20;;
26303;SDS011;57113;48.680;8.890;2022-12-29T02:01:20;4.75;;;1.40;;
26303;SDS011;57113;48.680;8.890;2022-12-29T02:03:46;2.38;;;1.40;;
26303;SDS011;57113;48.680;8.890;2022-12-29T02:06:23;2.17;;;1.42;;
26303;SDS011;57113;48.680;8.890;2022-12-29T02:08:54;3.97;;;1.42;;
26303;SDS011;57113;48.680;8.890;2022-12-29T02:11:21;3.22;;;1.23;;
26303;SDS011;57113;48.680;8.890;2022-12-29T02:13:50;2.53;;;1.13;;
26303;SDS011;57113;48.680;8.890;2022-12-29T02:16:35;3.08;;;1.60;;
26303;SDS011;57113;48.680;8.890;2022-12-29T02:23:10;2.72;;;1.50;;
26303;SDS011;57113;48.680;8.890;2022-12-29T02:38:36;2.63;;;1.30;;
26303;SDS011;57113;48.680;8.890;2022-12-29T02:44:50;2.65;;;1.30;;
26303;SDS011;57113;48.680;8.890;2022-12-29T02:50:19;4.10;;;1.58;;
26303;SDS011;57113;48.680;8.890;2022-12-29T02:53:00;2.25;;;1.45;;
26303;SDS011;57113;48.680;8.890;2022-12-29T02:55:29;3.10;;;1.38;;
26303;SDS011;57113;48.680;8.890;2022-12-29T02:58:06;3.17;;;1.38;;
26303;SDS011;57113;48.680;8.890;2022-12-29T03:09:33;3.28;;;1.40;;
26303;SDS011;57113;48.680;8.890;2022-12-29T03:12:29;1.95;;;1.17;;
26303;SDS011;57113;48.680;8.890;2022-12-29T03:15:21;3.15;;;1.30;;
26303;SDS011;57113;48.680;8.890;2022-12-29T03:18:13;4.13;;;1.35;;
26303;SDS011;57113;48.680;8.890;2022-12-29T03:20:52;3.00;;;1.05;;
26303;SDS011;57113;48.680;8.890;2022-12-29T03:23:26;2.58;;;1.42;;
26303;SDS011;57113;48.680;8.890;2022-12-29T03:25:54;4.07;;;1.70;;
26303;SDS011;57113;48.680;8.890;2022-12-29T03:28:24;3.03;;;1.50;;
26303;SDS011;57113;48.680;8.890;2022-12-29T03:30:54;5.07;;;1.42;;
26303;SDS011;57113;48.680;8.890;2022-12-29T03:33:23;4.43;;;1.48;;
26303;SDS011;57113;48.680;8.890;2022-12-29T03:35:52;2.67;;;1.27;;
26303;SDS011;57113;48.680;8.890;2022-12-29T03:38:25;2.28;;;1.20;;
26303;SDS011;57113;48.680;8.890;2022-12-29T03:41:01;2.95;;;1.40;;
26303;SDS011;57113;48.680;8.890;2022-12-29T03:43:30;3.72;;;1.40;;
26303;SDS011;57113;48.680;8.890;2022-12-29T03:45:56;2.13;;;1.30;;
26303;SDS011;57113;48.680;8.890;2022-12-29T03:48:22;2.40;;;1.17;;
26303;SDS011;57113;48.680;8.890;2022-12-29T03:50:48;1.98;;;1.13;;
26303;SDS011;57113;48.680;8.890;2022-12-29T03:53:13;2.40;;;1.23;;
26303;SDS011;57113;48.680;8.890;2022-12-29T03:55:39;2.08;;;1.30;;
26303;SDS011;57113;48.680;8.890;2022-12-29T03:58:04;1.80;;;1.20;;
26303;SDS011;57113;48.680;8.890;2022-12-29T04:00:30;2.28;;;1.20;;
26303;SDS011;57113;48.680;8.890;2022-12-29T04:02:56;1.88;;;1.00;;
26303;SDS011;57113;48.680;8.890;2022-12-29T04:05:21;3.50;;;1.20;;
26303;SDS011;57113;48.680;8.890;2022-12-29T04:07:47;2.88;;;1.13;;
26303;SDS011;57113;48.680;8.890;2022-12-29T04:10:13;2.53;;;1.40;;
26303;SDS011;57113;48.680;8.890;2022-12-29T04:12:39;6.00;;;1.45;;
26303;SDS011;57113;48.680;8.890;2022-12-29T04:15:06;2.80;;;1.70;;
26303;SDS011;57113;48.680;8.890;2022-12-29T04:17:33;2.70;;;1.17;;
26303;SDS011;57113;48.680;8.890;2022-12-29T04:19:58;1.40;;;0.90;;
26303;SDS011;57113;48.680;8.890;2022-12-29T04:22:44;4.35;;;1.10;;
26303;SDS011;57113;48.680;8.890;2022-12-29T04:25:10;3.22;;;1.27;;
26303;SDS011;57113;48.680;8.890;2022-12-29T04:27:35;5.03;;;1.40;;
26303;SDS011;57113;48.680;8.890;2022-12-29T04:30:01;3.05;;;1.50;;
26303;SDS011;57113;48.680;8.890;2022-12-29T04:32:27;1.52;;;1.20;;
26303;SDS011;57113;48.680;8.890;2022-12-29T04:34:52;4.00;;;1.27;;
26303;SDS011;57113;48.680;8.890;2022-12-29T04:37:18;2.90;;;1.15;;
26303;SDS011;57113;48.680;8.890;2022-12-29T04:39:43;3.13;;;1.65;;
26303;SDS011;57113;48.680;8.890;2022-12-29T04:42:09;4.13;;;1.48;;
26303;SDS011;57113;48.680;8.890;2022-12-29T04:44:35;2.53;;;1.48;;
26303;SDS011;57113;48.680;8.890;2022-12-29T04:47:00;2.80;;;1.58;;
26303;SDS011;57113;48.680;8.890;2022-12-29T04:49:26;3.70;;;1.45;;
26303;SDS011;57113;48.680;8.890;2022-12-29T04:51:51;2.00;;;1.40;;
26303;SDS011;57113;48.680;8.890;2022-12-29T04:54:17;4.88;;;1.95;;
26303;SDS011;57113;48.680;8.890;2022-12-29T04:56:42;2.47;;;1.40;;
26303;SDS011;57113;48.680;8.890;2022-12-29T04:59:08;2.47;;;1.30;;
26303;SDS011;57113;48.680;8.890;2022-12-29T05:01:34;5.93;;;1.58;;
26303;SDS011;57113;48.680;8.890;2022-12-29T05:03:59;3.25;;;1.48;;
26303;SDS011;57113;48.680;8.890;2022-12-29T05:06:25;2.33;;;1.50;;
26303;SDS011;57113;48.680;8.890;2022-12-29T05:08:50;3.05;;;1.55;;
26303;SDS011;57113;48.680;8.890;2022-12-29T05:11:16;2.35;;;1.70;;
26303;SDS011;57113;48.680;8.890;2022-12-29T05:13:44;5.93;;;1.48;;
26303;SDS011;57113;48.680;8.890;2022-12-29T05:16:11;4.75;;;1.58;;
26303;SDS011;57113;48.680;8.890;2022-12-29T05:18:36;5.28;;;1.80;;
26303;SDS011;57113;48.680;8.890;2022-12-29T05:21:02;3.42;;;1.67;;
26303;SDS011;57113;48.680;8.890;2022-12-29T05:23:28;5.05;;;1.60;;
26303;SDS011;57113;48.680;8.890;2022-12-29T05:25:53;3.58;;;1.60;;
26303;SDS011;57113;48.680;8.890;2022-12-29T05:28:19;3.30;;;1.70;;
26303;SDS011;57113;48.680;8.890;2022-12-29T05:30:47;2.83;;;1.42;;
26303;SDS011;57113;48.680;8.890;2022-12-29T05:33:16;4.20;;;1.60;;
26303;SDS011;57113;48.680;8.890;2022-12-29T05:35:43;2.13;;;1.58;;
26303;SDS011;57113;48.680;8.890;2022-12-29T05:38:08;2.58;;;1.42;;
26303;SDS011;57113;48.680;8.890;2022-12-29T05:40:34;4.03;;;1.63;;
26303;SDS011;57113;48.680;8.890;2022-12-29T05:43:00;4.70;;;1.77;;
26303;SDS011;57113;48.680;8.890;2022-12-29T05:45:26;3.38;;;1.70;;
26303;SDS011;57113;48.680;8.890;2022-12-29T05:47:51;4.90;;;1.80;;
26303;SDS011;57113;48.680;8.890;2022-12-29T05:50:17;5.68;;;1.90;;
26303;SDS011;57113;48.680;8.890;2022-12-29T05:52:42;6.25;;;1.67;;
26303;SDS011;57113;48.680;8.890;2022-12-29T05:55:08;5.68;;;1.80;;
26303;SDS011;57113;48.680;8.890;2022-12-29T05:57:34;4.45;;;1.63;;
26303;SDS011;57113;48.680;8.890;2022-12-29T06:00:01;4.05;;;2.10;;
26303;SDS011;57113;48.680;8.890;2022-12-29T06:02:28;3.85;;;2.05;;
26303;SDS011;57113;48.680;8.890;2022-12-29T06:04:54;2.33;;;1.58;;
26303;SDS011;57113;48.680;8.890;2022-12-29T06:07:19;3.47;;;1.60;;
26303;SDS011;57113;48.680;8.890;2022-12-29T06:09:45;4.57;;;1.70;;
26303;SDS011;57113;48.680;8.890;2022-12-29T06:12:10;2.13;;;1.63;;
26303;SDS011;57113;48.680;8.890;2022-12-29T06:14:36;3.78;;;1.70;;
26303;SDS011;57113;48.680;8.890;2022-12-29T06:17:02;3.75;;;1.77;;
26303;SDS011;57113;48.680;8.890;2022-12-29T06:19:27;4.28;;;2.03;;
26303;SDS011;57113;48.680;8.890;2022-12-29T06:21:53;2.42;;;1.77;;
26303;SDS011;57113;48.680;8.890;2022-12-29T06:24:19;4.65;;;1.92;;
26303;SDS011;57113;48.680;8.890;2022-12-29T06:26:44;3.80;;;1.88;;
26303;SDS011;57113;48.680;8.890;2022-12-29T06:29:10;2.65;;;1.67;;
26303;SDS011;57113;48.680;8.890;2022-12-29T06:31:36;4.00;;;1.63;;
26303;SDS011;57113;48.680;8.890;2022-12-29T06:34:01;2.58;;;1.52;;
26303;SDS011;57113;48.680;8.890;2022-12-29T06:36:27;3.08;;;1.85;;
26303;SDS011;57113;48.680;8.890;2022-12-29T06:38:53;3.28;;;1.77;;
26303;SDS011;57113;48.680;8.890;2022-12-29T06:41:19;3.60;;;1.80;;
26303;SDS011;57113;48.680;8.890;2022-12-29T06:43:45;3.67;;;1.80;;
26303;SDS011;57113;48.680;8.890;2022-12-29T06:46:11;3.65;;;1.77;;
26303;SDS011;57113;48.680;8.890;2022-12-29T06:48:37;2.05;;;1.70;;
26303;SDS011;57113;48.680;8.890;2022-12-29T06:51:02;2.58;;;1.60;;
26303;SDS011;57113;48.680;8.890;2022-12-29T06:53:28;2.45;;;1.73;;
26303;SDS011;57113;48.680;8.890;2022-12-29T06:55:54;5.47;;;1.83;;
26303;SDS011;57113;48.680;8.890;2022-12-29T06:58:21;2.95;;;1.60;;
26303;SDS011;57113;48.680;8.890;2022-12-29T07:00:47;2.90;;;1.77;;
26303;SDS011;57113;48.680;8.890;2022-12-29T07:03:13;3.03;;;1.80;;
26303;SDS011;57113;48.680;8.890;2022-12-29T07:05:38;3.05;;;2.10;;
26303;SDS011;57113;48.680;8.890;2022-12-29T07:08:04;4.70;;;2.10;;
26303;SDS011;57113;48.680;8.890;2022-12-29T07:10:30;5.22;;;1.83;;
26303;SDS011;57113;48.680;8.890;2022-12-29T07:12:56;3.47;;;2.00;;
26303;SDS011;57113;48.680;8.890;2022-12-29T07:15:22;3.88;;;1.77;;
26303;SDS011;57113;48.680;8.890;2022-12-29T07:17:47;3.05;;;1.77;;
26303;SDS011;57113;48.680;8.890;2022-12-29T07:20:14;4.43;;;2.03;;
26303;SDS011;57113;48.680;8.890;2022-12-29T07:22:40;4.32;;;1.67;;
26303;SDS011;57113;48.680;8.890;2022-12-29T07:25:06;2.35;;;1.70;;
26303;SDS011;57113;48.680;8.890;2022-12-29T07:27:32;5.82;;;2.00;;
26303;SDS011;57113;48.680;8.890;2022-12-29T07:29:58;5.43;;;1.75;;
26303;SDS011;57113;48.680;8.890;2022-12-29T07:32:23;5.22;;;2.08;;
26303;SDS011;57113;48.680;8.890;2022-12-29T07:34:49;2.78;;;1.90;;
26303;SDS011;57113;48.680;8.890;2022-12-29T07:37:14;3.70;;;1.98;;
26303;SDS011;57113;48.680;8.890;2022-12-29T07:39:40;2.75;;;1.67;;
26303;SDS011;57113;48.680;8.890;2022-12-29T07:42:06;2.45;;;1.90;;
26303;SDS011;57113;48.680;8.890;2022-12-29T07:44:31;4.47;;;2.10;;
26303;SDS011;57113;48.680;8.890;2022-12-29T07:46:57;3.60;;;1.77;;
26303;SDS011;57113;48.680;8.890;2022-12-29T07:49:23;4.18;;;2.15;;
26303;SDS011;57113;48.680;8.890;2022-12-29T07:51:48;3.90;;;1.60;;
26303;SDS011;57113;48.680;8.890;2022-12-29T07:54:14;3.38;;;2.08;;
26303;SDS011;57113;48.680;8.890;2022-12-29T07:56:43;4.05;;;2.03;;
26303;SDS011;57113;48.680;8.890;2022-12-29T07:59:09;3.30;;;1.90;;
26303;SDS011;57113;48.680;8.890;2022-12-29T08:01:34;2.20;;;1.95;;
26303;SDS011;57113;48.680;8.890;2022-12-29T08:04:00;4.22;;;1.60;;
26303;SDS011;57113;48.680;8.890;2022-12-29T08:06:26;3.58;;;1.88;;
26303;SDS011;57113;48.680;8.890;2022-12-29T08:08:51;2.33;;;1.77;;
26303;SDS011;57113;48.680;8.890;2022-12-29T08:11:17;4.43;;;1.90;;
26303;SDS011;57113;48.680;8.890;2022-12-29T08:13:42;3.30;;;1.67;;
26303;SDS011;57113;48.680;8.890;2022-12-29T08:16:08;3.97;;;2.28;;
26303;SDS011;57113;48.680;8.890;2022-12-29T08:18:34;5.20;;;1.92;;
26303;SDS011;57113;48.680;8.890;2022-12-29T08:21:03;3.58;;;1.90;;
26303;SDS011;57113;48.680;8.890;2022-12-29T08:23:29;2.70;;;1.80;;
26303;SDS011;57113;48.680;8.890;2022-12-29T08:25:59;4.22;;;1.60;;
26303;SDS011;57113;48.680;8.890;2022-12-29T08:28:26;3.17;;;1.77;;
26303;SDS011;57113;48.680;8.890;2022-12-29T08:30:52;2.75;;;1.73;;
26303;SDS011;57113;48.680;8.890;2022-12-29T08:33:17;4.95;;;1.60;;
26303;SDS011;57113;48.680;8.890;2022-12-29T08:35:43;3.97;;;1.70;;
26303;SDS011;57113;48.680;8.890;2022-12-29T08:38:09;3.45;;;1.90;;
26303;SDS011;57113;48.680;8.890;2022-12-29T08:40:36;4.22;;;1.73;;
26303;SDS011;57113;48.680;8.890;2022-12-29T08:43:02;2.80;;;1.75;;
26303;SDS011;57113;48.680;8.890;2022-12-29T08:45:27;2.85;;;1.75;;
26303;SDS011;57113;48.680;8.890;2022-12-29T08:47:53;5.93;;;1.73;;
26303;SDS011;57113;48.680;8.890;2022-12-29T08:50:19;2.00;;;1.60;;
26303;SDS011;57113;48.680;8.890;2022-12-29T08:52:44;4.80;;;1.80;;
26303;SDS011;57113;48.680;8.890;2022-12-29T08:55:10;2.72;;;1.70;;
26303;SDS011;57113;48.680;8.890;2022-12-29T08:57:35;3.60;;;2.00;;
26303;SDS011;57113;48.680;8.890;2022-12-29T09:00:02;2.72;;;1.70;;
26303;SDS011;57113;48.680;8.890;2022-12-29T09:02:28;3.97;;;1.90;;
26303;SDS011;57113;48.680;8.890;2022-12-29T09:04:54;2.72;;;1.70;;
26303;SDS011;57113;48.680;8.890;2022-12-29T09:07:19;3.15;;;1.75;;
26303;SDS011;57113;48.680;8.890;2022-12-29T09:09:45;4.10;;;1.75;;
26303;SDS011;57113;48.680;8.890;2022-12-29T09:12:11;3.33;;;1.70;;
26303;SDS011;57113;48.680;8.890;2022-12-29T09:14:36;4.18;;;1.80;;
26303;SDS011;57113;48.680;8.890;2022-12-29T09:17:02;5.60;;;1.60;;
26303;SDS011;57113;48.680;8.890;2022-12-29T09:19:46;5.20;;;1.45;;
26303;SDS011;57113;48.680;8.890;2022-12-29T09:22:11;3.85;;;1.90;;
26303;SDS011;57113;48.680;8.890;2022-12-29T09:24:37;5.40;;;1.67;;
26303;SDS011;57113;48.680;8.890;2022-12-29T09:27:03;3.95;;;1.52;;
26303;SDS011;57113;48.680;8.890;2022-12-29T09:29:28;4.15;;;1.70;;
26303;SDS011;57113;48.680;8.890;2022-12-29T09:31:54;3.45;;;1.70;;
26303;SDS011;57113;48.680;8.890;2022-12-29T09:34:20;3.08;;;1.60;;
26303;SDS011;57113;48.680;8.890;2022-12-29T09:36:45;2.33;;;1.45;;
26303;SDS011;57113;48.680;8.890;2022-12-29T09:39:12;6.30;;;1.63;;
26303;SDS011;57113;48.680;8.890;2022-12-29T09:41:39;4.25;;;1.60;;
26303;SDS011;57113;48.680;8.890;2022-12-29T09:46:51;3.47;;;2.00;;
26303;SDS011;57113;48.680;8.890;2022-12-29T09:49:31;4.10;;;1.83;;
26303;SDS011;57113;48.680;8.890;2022-12-29T09:52:13;3.63;;;1.75;;
26303;SDS011;57113;48.680;8.890;2022-12-29T09:54:49;4.28;;;1.80;;
26303;SDS011;57113;48.680;8.890;2022-12-29T09:57:23;3.58;;;1.58;;
26303;SDS011;57113;48.680;8.890;2022-12-29T10:00:18;4.68;;;1.30;;
26303;SDS011;57113;48.680;8.890;2022-12-29T10:02:51;7.78;;;1.80;;
26303;SDS011;57113;48.680;8.890;2022-12-29T10:05:33;4.60;;;1.33;;
26303;SDS011;57113;48.680;8.890;2022-12-29T10:08:11;2.63;;;1.52;;
26303;SDS011;57113;48.680;8.890;2022-12-29T10:10:59;5.13;;;1.63;;
26303;SDS011;57113;48.680;8.890;2022-12-29T10:16:18;4.32;;;2.10;;
26303;SDS011;57113;48.680;8.890;2022-12-29T10:24:10;2.60;;;1.63;;
26303;SDS011;57113;48.680;8.890;2022-12-29T10:26:41;4.47;;;2.10;;
26303;SDS011;57113;48.680;8.890;2022-12-29T10:31:49;4.20;;;2.33;;
26303;SDS011;57113;48.680;8.890;2022-12-29T10:34:37;3.97;;;2.13;;
26303;SDS011;57113;48.680;8.890;2022-12-29T10:40:12;3.78;;;2.30;;
26303;SDS011;57113;48.680;8.890;2022-12-29T10:42:57;3.53;;;1.92;;
26303;SDS011;57113;48.680;8.890;2022-12-29T10:45:25;4.97;;;2.38;;
26303;SDS011;57113;48.680;8.890;2022-12-29T10:47:57;5.70;;;2.28;;
26303;SDS011;57113;48.680;8.890;2022-12-29T10:50:25;5.53;;;2.40;;
26303;SDS011;57113;48.680;8.890;2022-12-29T10:52:51;5.13;;;2.20;;
26303;SDS011;57113;48.680;8.890;2022-12-29T10:55:21;6.20;;;2.30;;
26303;SDS011;57113;48.680;8.890;2022-12-29T10:57:52;5.40;;;2.58;;
26303;SDS011;57113;48.680;8.890;2022-12-29T11:00:22;5.22;;;2.42;;
26303;SDS011;57113;48.680;8.890;2022-12-29T11:08:28;3.78;;;2.30;;
26303;SDS011;57113;48.680;8.890;2022-12-29T11:11:05;4.57;;;2.25;;
26303;SDS011;57113;48.680;8.890;2022-12-29T11:13:34;4.28;;;1.90;;
26303;SDS011;57113;48.680;8.890;2022-12-29T11:16:11;7.13;;;2.13;;
26303;SDS011;57113;48.680;8.890;2022-12-29T11:18:38;3.92;;;2.05;;
26303;SDS011;57113;48.680;8.890;2022-12-29T11:21:50;4.32;;;2.22;;
26303;SDS011;57113;48.680;8.890;2022-12-29T11:24:05;5.07;;;2.50;;
26303;SDS011;57113;48.680;8.890;2022-12-29T11:26:43;8.02;;;2.20;;
26303;SDS011;57113;48.680;8.890;2022-12-29T11:31:42;5.05;;;2.40;;
26303;SDS011;57113;48.680;8.890;2022-12-29T11:34:22;4.30;;;1.90;;
26303;SDS011;57113;48.680;8.890;2022-12-29T11:36:53;4.07;;;2.33;;
26303;SDS011;57113;48.680;8.890;2022-12-29T11:39:26;6.57;;;2.20;;
26303;SDS011;57113;48.680;8.890;2022-12-29T11:41:56;3.50;;;2.22;;
26303;SDS011;57113;48.680;8.890;2022-12-29T11:44:22;3.45;;;2.30;;
26303;SDS011;57113;48.680;8.890;2022-12-29T11:46:49;4.55;;;2.00;;
26303;SDS011;57113;48.680;8.890;2022-12-29T11:49:20;4.25;;;2.10;;
26303;SDS011;57113;48.680;8.890;2022-12-29T11:51:49;5.25;;;1.88;;
26303;SDS011;57113;48.680;8.890;2022-12-29T11:54:33;5.25;;;1.85;;
26303;SDS011;57113;48.680;8.890;2022-12-29T11:57:12;4.82;;;2.17;;
26303;SDS011;57113;48.680;8.890;2022-12-29T11:59:41;5.28;;;2.20;;
26303;SDS011;57113;48.680;8.890;2022-12-29T12:04:46;3.60;;;2.00;;
26303;SDS011;57113;48.680;8.890;2022-12-29T12:07:22;3.72;;;1.90;;
26303;SDS011;57113;48.680;8.890;2022-12-29T12:09:58;4.95;;;1.95;;
26303;SDS011;57113;48.680;8.890;2022-12-29T12:12:30;2.58;;;1.60;;
26303;SDS011;57113;48.680;8.890;2022-12-29T12:15:28;4.80;;;1.60;;
26303;SDS011;57113;48.680;8.890;2022-12-29T12:21:45;3.45;;;1.77;;
26303;SDS011;57113;48.680;8.890;2022-12-29T12:32:26;4.22;;;2.20;;
26303;SDS011;57113;48.680;8.890;2022-12-29T12:35:03;3.50;;;1.90;;
26303;SDS011;57113;48.680;8.890;2022-12-29T12:56:54;5.03;;;1.83;;
26303;SDS011;57113;48.680;8.890;2022-12-29T12:59:37;4.85;;;2.08;;
26303;SDS011;57113;48.680;8.890;2022-12-29T13:10:55;3.47;;;1.92;;
26303;SDS011;57113;48.680;8.890;2022-12-29T13:16:53;6.32;;;2.28;;
26303;SDS011;57113;48.680;8.890;2022-12-29T13:19:30;3.28;;;1.80;;
26303;SDS011;57113;48.680;8.890;2022-12-29T13:22:28;6.55;;;1.90;;
26303;SDS011;57113;48.680;8.890;2022-12-29T13:27:50;5.38;;;2.03;;
26303;SDS011;57113;48.680;8.890;2022-12-29T13:30:18;5.18;;;2.10;;
26303;SDS011;57113;48.680;8.890;2022-12-29T13:40:45;4.68;;;2.40;;
26303;SDS011;57113;48.680;8.890;2022-12-29T13:43:14;4.90;;;1.77;;
26303;SDS011;57113;48.680;8.890;2022-12-29T13:45:42;4.57;;;1.90;;
26303;SDS011;57113;48.680;8.890;2022-12-29T13:50:48;4.30;;;2.15;;
26303;SDS011;57113;48.680;8.890;2022-12-29T13:56:26;4.07;;;1.90;;
26303;SDS011;57113;48.680;8.890;2022-12-29T13:58:58;4.00;;;1.90;;
26303;SDS011;57113;48.680;8.890;2022-12-29T14:01:34;5.45;;;2.22;;
26303;SDS011;57113;48.680;8.890;2022-12-29T14:04:02;3.72;;;1.88;;
26303;SDS011;57113;48.680;8.890;2022-12-29T14:06:34;2.70;;;1.70;;
26303;SDS011;57113;48.680;8.890;2022-12-29T14:09:06;2.80;;;1.90;;
26303;SDS011;57113;48.680;8.890;2022-12-29T14:11:51;5.25;;;2.35;;
26303;SDS011;57113;48.680;8.890;2022-12-29T14:14:21;8.48;;;1.70;;
26303;SDS011;57113;48.680;8.890;2022-12-29T14:16:48;2.40;;;1.60;;
26303;SDS011;57113;48.680;8.890;2022-12-29T14:19:24;4.35;;;1.70;;
26303;SDS011;57113;48.680;8.890;2022-12-29T14:21:55;2.90;;;1.80;;
26303;SDS011;57113;48.680;8.890;2022-12-29T14:27:07;2.47;;;1.58;;
26303;SDS011;57113;48.680;8.890;2022-12-29T14:29:49;2.80;;;1.70;;
26303;SDS011;57113;48.680;8.890;2022-12-29T14:34:57;5.15;;;2.03;;
26303;SDS011;57113;48.680;8.890;2022-12-29T14:42:43;4.60;;;2.00;;
26303;SDS011;57113;48.680;8.890;2022-12-29T14:47:57;3.25;;;2.00;;
26303;SDS011;57113;48.680;8.890;2022-12-29T14:50:43;5.37;;;2.20;;
26303;SDS011;57113;48.680;8.890;2022-12-29T14:56:11;3.58;;;1.90;;
26303;SDS011;57113;48.680;8.890;2022-12-29T14:58:52;4.07;;;2.00;;
26303;SDS011;57113;48.680;8.890;2022-12-29T15:03:58;2.92;;;1.73;;
26303;SDS011;57113;48.680;8.890;2022-12-29T15:06:30;3.45;;;1.90;;
26303;SDS011;57113;48.680;8.890;2022-12-29T15:09:03;2.63;;;1.60;;
26303;SDS011;57113;48.680;8.890;2022-12-29T15:11:48;3.93;;;1.67;;
26303;SDS011;57113;48.680;8.890;2022-12-29T15:14:35;3.92;;;2.10;;
26303;SDS011;57113;48.680;8.890;2022-12-29T15:17:22;3.65;;;2.00;;
26303;SDS011;57113;48.680;8.890;2022-12-29T15:19:51;6.63;;;2.20;;
26303;SDS011;57113;48.680;8.890;2022-12-29T15:22:17;3.80;;;1.98;;
26303;SDS011;57113;48.680;8.890;2022-12-29T15:24:43;4.18;;;2.00;;
26303;SDS011;57113;48.680;8.890;2022-12-29T15:27:10;3.60;;;1.77;;
26303;SDS011;57113;48.680;8.890;2022-12-29T15:29:40;3.63;;;1.80;;
26303;SDS011;57113;48.680;8.890;2022-12-29T15:32:26;3.58;;;1.73;;
26303;SDS011;57113;48.680;8.890;2022-12-29T15:34:54;4.95;;;1.92;;
26303;SDS011;57113;48.680;8.890;2022-12-29T15:37:22;3.13;;;1.80;;
26303;SDS011;57113;48.680;8.890;2022-12-29T15:39:53;3.50;;;1.83;;
26303;SDS011;57113;48.680;8.890;2022-12-29T15:42:36;2.22;;;1.33;;
26303;SDS011;57113;48.680;8.890;2022-12-29T15:45:23;4.30;;;2.10;;
26303;SDS011;57113;48.680;8.890;2022-12-29T15:47:54;3.95;;;1.98;;
26303;SDS011;57113;48.680;8.890;2022-12-29T15:50:28;3.45;;;1.83;;
26303;SDS011;57113;48.680;8.890;2022-12-29T15:52:56;4.32;;;2.00;;
26303;SDS011;57113;48.680;8.890;2022-12-29T15:55:31;3.58;;;2.08;;
26303;SDS011;57113;48.680;8.890;2022-12-29T15:58:00;3.45;;;2.15;;
26303;SDS011;57113;48.680;8.890;2022-12-29T16:00:28;3.10;;;2.10;;
26303;SDS011;57113;48.680;8.890;2022-12-29T16:02:56;3.25;;;2.00;;
26303;SDS011;57113;48.680;8.890;2022-12-29T16:05:24;4.57;;;2.15;;
26303;SDS011;57113;48.680;8.890;2022-12-29T16:07:58;3.17;;;2.28;;
26303;SDS011;57113;48.680;8.890;2022-12-29T16:10:37;2.60;;;1.88;;
26303;SDS011;57113;48.680;8.890;2022-12-29T16:13:25;3.20;;;1.85;;
26303;SDS011;57113;48.680;8.890;2022-12-29T16:16:08;5.10;;;1.75;;
26303;SDS011;57113;48.680;8.890;2022-12-29T16:18:38;4.35;;;1.83;;
26303;SDS011;57113;48.680;8.890;2022-12-29T16:21:05;3.78;;;1.80;;
26303;SDS011;57113;48.680;8.890;2022-12-29T16:23:40;3.05;;;1.50;;
26303;SDS011;57113;48.680;8.890;2022-12-29T16:26:14;4.13;;;1.90;;
26303;SDS011;57113;48.680;8.890;2022-12-29T16:28:42;2.42;;;1.58;;
26303;SDS011;57113;48.680;8.890;2022-12-29T16:31:22;2.75;;;1.88;;
26303;SDS011;57113;48.680;8.890;2022-12-29T16:34:11;3.70;;;1.95;;
26303;SDS011;57113;48.680;8.890;2022-12-29T16:36:53;4.82;;;2.13;;
26303;SDS011;57113;48.680;8.890;2022-12-29T16:39:28;3.03;;;1.85;;
26303;SDS011;57113;48.680;8.890;2022-12-29T16:50:31;3.75;;;1.90;;
26303;SDS011;57113;48.680;8.890;2022-12-29T16:52:59;2.88;;;1.80;;
26303;SDS011;57113;48.680;8.890;2022-12-29T16:55:27;4.55;;;2.30;;
26303;SDS011;57113;48.680;8.890;2022-12-29T16:57:53;3.00;;;2.30;;
26303;SDS011;57113;48.680;8.890;2022-12-29T17:00:32;3.50;;;2.35;;
26303;SDS011;57113;48.680;8.890;2022-12-29T17:03:00;3.58;;;2.30;;
26303;SDS011;57113;48.680;8.890;2022-12-29T17:05:27;3.88;;;2.40;;
26303;SDS011;57113;48.680;8.890;2022-12-29T17:07:52;6.25;;;3.00;;
26303;SDS011;57113;48.680;8.890;2022-12-29T17:10:19;4.85;;;2.47;;
26303;SDS011;57113;48.680;8.890;2022-12-29T17:12:45;4.70;;;2.80;;
26303;SDS011;57113;48.680;8.890;2022-12-29T17:15:21;4.50;;;2.60;;
26303;SDS011;57113;48.680;8.890;2022-12-29T17:17:56;4.93;;;2.60;;
26303;SDS011;57113;48.680;8.890;2022-12-29T17:20:25;3.20;;;2.35;;
26303;SDS011;57113;48.680;8.890;2022-12-29T17:22:53;5.68;;;2.83;;
26303;SDS011;57113;48.680;8.890;2022-12-29T17:25:19;5.35;;;2.60;;
26303;SDS011;57113;48.680;8.890;2022-12-29T17:30:24;4.40;;;2.53;;
26303;SDS011;57113;48.680;8.890;2022-12-29T17:32:53;4.47;;;2.53;;
26303;SDS011;57113;48.680;8.890;2022-12-29T17:35:25;5.03;;;2.80;;
26303;SDS011;57113;48.680;8.890;2022-12-29T17:37:52;4.82;;;2.50;;
26303;SDS011;57113;48.680;8.890;2022-12-29T17:40:19;4.40;;;2.58;;